Time;durP1;ratioP1;P1;durP2;ratioP2;P2;SDS_P1;SDS_P2;PMS_P1;PMS_P2;Temp;Humidity;BMP_temperature;BMP_pressure;BME280_temperature;BME280_humidity;BME280_pressure;Samples;Min_cycle;Max_cycle;Signal;HPM_P1;HPM_P2
2022/07/04 00:02:11;;;;;;;48.03;43.22;;;;;;;-140.79;100.00;63287.88;5001611;28;20037;-51
2022/07/04 00:04:36;;;;;;;47.10;42.35;;;;;;;-140.79;100.00;63287.88;5002706;28;20540;-51
2022/07/04 00:07:02;;;;;;;46.17;41.42;;;;;;;-140.79;100.00;63287.88;4998789;28;20034;-52
2022/07/04 00:09:27;;;;;;;43.55;39.30;;;;;;;-140.79;100.00;63287.88;4997648;28;20690;-52
2022/07/04 00:11:53;;;;;;;48.45;43.60;;;;;;;-140.79;100.00;63287.88;4997820;28;20839;-56
2022/07/04 00:14:18;;;;;;;47.00;42.35;;;;;;;-140.79;100.00;63287.88;5002419;28;20405;-51
2022/07/04 00:16:44;;;;;;;38.55;34.80;;;;;;;-140.79;100.00;63287.88;4995940;28;20068;-53
2022/07/04 00:19:09;;;;;;;43.97;39.83;;;;;;;-140.79;100.00;63287.88;4999419;28;20527;-51
2022/07/04 00:21:35;;;;;;;37.05;33.60;;;;;;;-140.79;100.00;63287.88;4999618;28;20651;-55
2022/07/04 00:24:00;;;;;;;33.72;30.40;;;;;;;-140.79;100.00;63287.88;4999538;28;20614;-52
2022/07/04 00:26:26;;;;;;;32.88;29.63;;;;;;;-140.79;100.00;63287.88;5000921;28;20030;-53
2022/07/04 00:28:51;;;;;;;38.05;34.35;;;;;;;-140.79;100.00;63287.88;4999140;28;20169;-55
2022/07/04 00:31:17;;;;;;;41.88;37.78;;;;;;;-140.79;100.00;63287.88;4997659;28;20037;-53
2022/07/04 00:33:42;;;;;;;38.80;35.08;;;;;;;-140.79;100.00;63287.88;4999580;28;20033;-54
2022/07/04 00:36:08;;;;;;;31.42;28.33;;;;;;;-140.79;100.00;63287.88;4997049;28;20030;-54
2022/07/04 00:38:33;;;;;;;29.48;26.63;;;;;;;-140.79;100.00;63287.88;5000409;28;20048;-53
2022/07/04 00:40:58;;;;;;;26.77;23.98;;;;;;;-140.79;100.00;63287.88;4979122;28;20053;-51
2022/07/04 00:43:25;;;;;;;29.08;26.23;;;;;;;-140.79;100.00;63287.88;4997364;28;20061;-53
2022/07/04 00:45:50;;;;;;;28.02;25.42;;;;;;;-140.79;100.00;63287.88;4975589;28;20042;-53
2022/07/04 00:48:16;;;;;;;30.23;27.13;;;;;;;-140.79;100.00;63287.88;4999638;28;20471;-53
2022/07/04 00:50:46;;;;;;;34.60;31.25;;;;;;;-140.79;100.00;63287.88;4998019;28;20021;-51
2022/07/04 00:53:15;;;;;;;31.27;28.17;;;;;;;-140.79;100.00;63287.88;5000262;28;20025;-51
2022/07/04 00:55:41;;;;;;;30.38;27.20;;;;;;;-140.79;100.00;63287.88;4976631;28;20037;-51
2022/07/04 00:58:07;;;;;;;26.63;23.95;;;;;;;-140.79;100.00;63287.88;4980550;28;20030;-51
2022/07/04 01:00:32;;;;;;;26.05;23.73;;;;;;;-140.79;100.00;63287.88;4999512;28;20286;-52
2022/07/04 01:02:58;;;;;;;35.13;31.80;;;;;;;-140.79;100.00;63287.88;4997149;28;20060;-51
2022/07/04 01:05:23;;;;;;;29.77;26.80;;;;;;;-140.79;100.00;63287.88;4998814;28;20441;-51
2022/07/04 01:07:49;;;;;;;26.88;24.33;;;;;;;-140.79;100.00;63287.88;4999674;28;20033;-51
2022/07/04 01:10:14;;;;;;;30.42;27.52;;;;;;;-140.79;100.00;63287.88;4958979;28;20545;-52
2022/07/04 01:12:40;;;;;;;28.10;25.23;;;;;;;-140.79;100.00;63287.88;4996347;28;20041;-51
2022/07/04 01:15:06;;;;;;;26.38;23.75;;;;;;;-140.79;100.00;63287.88;4977022;28;20042;-54
2022/07/04 01:17:32;;;;;;;29.90;26.98;;;;;;;-140.79;100.00;63287.88;4995972;28;20638;-50
2022/07/04 01:19:57;;;;;;;25.60;23.13;;;;;;;-140.79;100.00;63287.88;4999857;28;20041;-54
2022/07/04 01:22:23;;;;;;;31.13;28.00;;;;;;;-140.79;100.00;63287.88;4998725;28;20042;-52
2022/07/04 01:24:49;;;;;;;25.55;23.20;;;;;;;-140.79;100.00;63287.88;4999156;28;20065;-52
2022/07/04 01:27:15;;;;;;;23.75;21.60;;;;;;;-140.79;100.00;63287.88;4998333;28;20049;-52
2022/07/04 01:29:40;;;;;;;32.75;29.83;;;;;;;-140.79;100.00;63287.88;4999986;28;20361;-54
2022/07/04 01:32:06;;;;;;;28.58;26.08;;;;;;;-140.79;100.00;63287.88;4998026;28;20029;-55
2022/07/04 01:34:32;;;;;;;24.35;22.20;;;;;;;-140.79;100.00;63287.88;4997930;28;20485;-54
2022/07/04 01:37:01;;;;;;;27.45;25.00;;;;;;;-140.79;100.00;63287.88;4997961;28;20030;-56
2022/07/04 01:39:27;;;;;;;26.85;23.95;;;;;;;-140.79;100.00;63287.88;4998984;28;20116;-54
2022/07/04 01:41:53;;;;;;;28.45;25.80;;;;;;;-140.79;100.00;63287.88;4974973;28;20112;-55
2022/07/04 01:44:18;;;;;;;30.48;27.80;;;;;;;-140.79;100.00;63287.88;4991764;28;20070;-54
2022/07/04 01:46:43;;;;;;;29.30;26.55;;;;;;;-140.79;100.00;63287.88;4998684;28;20045;-51
2022/07/04 01:49:09;;;;;;;34.75;31.38;;;;;;;-140.79;100.00;63287.88;4999785;28;20034;-52
2022/07/04 01:51:34;;;;;;;36.65;33.20;;;;;;;-140.79;100.00;63287.88;4999356;28;20033;-53
2022/07/04 01:54:00;;;;;;;34.08;31.05;;;;;;;-140.79;100.00;63287.88;4996149;28;20034;-53
2022/07/04 01:56:25;;;;;;;33.90;30.73;;;;;;;-140.79;100.00;63287.88;4998053;28;20681;-53
2022/07/04 01:58:51;;;;;;;31.15;28.10;;;;;;;-140.79;100.00;63287.88;4995746;28;20026;-52
2022/07/04 02:01:32;;;;;;;31.00;27.85;;;;;;;-140.79;100.00;63287.88;4995908;28;20034;-51
2022/07/04 02:04:04;;;;;;;36.03;32.45;;;;;;;-140.79;100.00;63287.88;4998163;28;20053;-51
2022/07/04 02:06:30;;;;;;;32.92;29.33;;;;;;;-140.79;100.00;63287.88;4996301;28;20033;-51
2022/07/04 02:14:23;;;;;;;30.70;27.58;;;;;;;-140.79;100.00;63287.88;4996485;28;20048;-53
2022/07/04 02:16:49;;;;;;;28.13;25.42;;;;;;;-140.79;100.00;63287.88;4997758;28;20468;-51
2022/07/04 02:19:14;;;;;;;33.00;29.83;;;;;;;-140.79;100.00;63287.88;4995931;28;20503;-51
2022/07/04 02:21:40;;;;;;;34.58;31.20;;;;;;;-140.79;100.00;63287.88;4999310;28;20095;-51
2022/07/04 02:24:06;;;;;;;25.05;22.52;;;;;;;-140.79;100.00;63287.88;4995962;28;20036;-51
2022/07/04 02:26:31;;;;;;;30.90;27.92;;;;;;;-140.79;100.00;63287.88;4995595;28;20115;-51
2022/07/04 02:28:56;;;;;;;27.77;24.95;;;;;;;-140.79;100.00;63287.88;4995697;28;20617;-51
2022/07/04 02:31:22;;;;;;;28.63;26.08;;;;;;;-140.79;100.00;63287.88;4996019;28;20052;-52
2022/07/04 02:33:48;;;;;;;27.67;25.17;;;;;;;-140.79;100.00;63287.88;4997873;28;20044;-52
2022/07/04 02:36:13;;;;;;;24.52;22.17;;;;;;;-140.79;100.00;63287.88;4963327;28;20467;-51
2022/07/04 02:38:39;;;;;;;23.48;21.23;;;;;;;-140.79;100.00;63287.88;4990621;28;20030;-52
2022/07/04 02:41:05;;;;;;;27.17;24.38;;;;;;;-140.79;100.00;63287.88;4992880;28;20026;-53
2022/07/04 02:43:31;;;;;;;29.85;26.80;;;;;;;-140.79;100.00;63287.88;4991898;28;20099;-53
2022/07/04 02:45:56;;;;;;;21.35;19.45;;;;;;;-140.79;100.00;63287.88;4995357;28;20811;-51
2022/07/04 02:48:23;;;;;;;21.63;19.58;;;;;;;-140.79;100.00;63287.88;5000914;28;20269;-51
2022/07/04 02:50:48;;;;;;;24.65;22.35;;;;;;;-140.79;100.00;63287.88;4996227;28;20488;-52
2022/07/04 02:53:13;;;;;;;29.25;26.25;;;;;;;-140.79;100.00;63287.88;5001394;28;20037;-51
2022/07/04 02:55:39;;;;;;;23.67;21.55;;;;;;;-140.79;100.00;63287.88;4957023;28;20042;-52
2022/07/04 02:58:04;;;;;;;25.55;23.15;;;;;;;-140.79;100.00;63287.88;4976414;28;20465;-51
2022/07/04 03:00:30;;;;;;;36.72;28.65;;;;;;;-140.79;100.00;63287.88;4993777;28;20113;-51
2022/07/04 03:02:55;;;;;;;18.70;17.00;;;;;;;-140.79;100.00;63287.88;4994697;28;20029;-50
2022/07/04 03:05:21;;;;;;;23.58;21.48;;;;;;;-140.79;100.00;63287.88;4999712;28;20508;-53
2022/07/04 03:07:46;;;;;;;24.83;22.33;;;;;;;-140.79;100.00;63287.88;5002616;28;20132;-52
2022/07/04 03:10:12;;;;;;;25.83;22.52;;;;;;;-140.79;100.00;63287.88;4996992;28;20699;-52
2022/07/04 03:12:37;;;;;;;20.80;19.08;;;;;;;-140.79;100.00;63287.88;4997939;28;20033;-52
2022/07/04 03:15:03;;;;;;;18.55;15.35;;;;;;;-140.79;100.00;63287.88;4993794;28;20433;-51
2022/07/04 03:17:31;;;;;;;19.23;17.27;;;;;;;-140.79;100.00;63287.88;5001705;28;20026;-51
2022/07/04 03:19:57;;;;;;;19.88;17.75;;;;;;;-140.79;100.00;63287.88;4976914;28;20085;-52
2022/07/04 03:22:22;;;;;;;20.95;18.85;;;;;;;-140.79;100.00;63287.88;4973530;28;20022;-52
2022/07/04 03:24:48;;;;;;;12.45;11.15;;;;;;;-140.79;100.00;63287.88;5001696;28;20041;-52
2022/07/04 03:27:13;;;;;;;23.20;20.95;;;;;;;-140.79;100.00;63287.88;4999389;28;20489;-53
2022/07/04 03:29:39;;;;;;;16.15;14.48;;;;;;;-140.79;100.00;63287.88;4993036;28;20034;-53
2022/07/04 03:32:05;;;;;;;19.02;17.23;;;;;;;-140.79;100.00;63287.88;4995700;28;20551;-53
2022/07/04 03:34:30;;;;;;;24.80;22.52;;;;;;;-140.79;100.00;63287.88;4996156;28;20025;-53
2022/07/04 03:36:56;;;;;;;27.83;25.02;;;;;;;-140.79;100.00;63287.88;5002466;28;20543;-51
2022/07/04 03:39:21;;;;;;;22.15;18.38;;;;;;;-140.79;100.00;63287.88;4999890;28;20021;-53
2022/07/04 03:41:47;;;;;;;24.33;21.85;;;;;;;-140.79;100.00;63287.88;4999052;28;20042;-52
2022/07/04 03:44:13;;;;;;;21.63;19.33;;;;;;;-140.79;100.00;63287.88;5001200;28;20556;-54
2022/07/04 03:46:38;;;;;;;24.05;21.50;;;;;;;-140.79;100.00;63287.88;4999973;28;20058;-52
2022/07/04 03:49:04;;;;;;;25.58;23.20;;;;;;;-140.79;100.00;63287.88;4998426;28;20026;-51
2022/07/04 03:51:29;;;;;;;14.70;12.73;;;;;;;-140.79;100.00;63287.88;4993620;28;20023;-52
2022/07/04 03:53:55;;;;;;;23.27;20.98;;;;;;;-140.79;100.00;63287.88;4994798;28;20049;-53
2022/07/04 03:56:20;;;;;;;24.20;21.67;;;;;;;-140.79;100.00;63287.88;4989819;28;20057;-51
2022/07/04 03:58:48;;;;;;;24.63;22.38;;;;;;;-140.79;100.00;63287.88;4983854;28;20022;-52
2022/07/04 04:01:17;;;;;;;23.35;20.88;;;;;;;-140.79;100.00;63287.88;4980661;28;20066;-54
2022/07/04 04:06:27;;;;;;;29.92;27.17;;;;;;;-140.79;100.00;63287.88;4987196;28;20461;-51
2022/07/04 04:08:52;;;;;;;25.08;22.50;;;;;;;-140.79;100.00;63287.88;4984498;28;20026;-51
2022/07/04 04:11:18;;;;;;;29.70;26.67;;;;;;;-140.79;100.00;63287.88;4988572;28;20030;-52
2022/07/04 04:13:43;;;;;;;24.63;22.33;;;;;;;-140.79;100.00;63287.88;4981190;28;20029;-51
2022/07/04 04:16:09;;;;;;;32.80;29.42;;;;;;;-140.79;100.00;63287.88;4976388;28;20494;-53
2022/07/04 04:18:34;;;;;;;27.55;25.05;;;;;;;-140.79;100.00;63287.88;4982187;28;20080;-53
2022/07/04 04:21:00;;;;;;;29.40;26.63;;;;;;;-140.79;100.00;63287.88;4987872;28;20029;-53
2022/07/04 04:23:25;;;;;;;28.42;25.58;;;;;;;-140.79;100.00;63287.88;4983562;28;20025;-52
2022/07/04 04:25:51;;;;;;;27.35;24.52;;;;;;;-140.79;100.00;63287.88;4983702;28;20038;-52
2022/07/04 04:28:17;;;;;;;26.88;24.33;;;;;;;-140.79;100.00;63287.88;4982374;28;20595;-51
2022/07/04 04:30:43;;;;;;;28.17;25.45;;;;;;;-140.79;100.00;63287.88;4984401;28;20042;-53
2022/07/04 04:33:08;;;;;;;33.38;28.92;;;;;;;-140.79;100.00;63287.88;4967931;28;20022;-51
2022/07/04 04:35:34;;;;;;;34.25;30.77;;;;;;;-140.79;100.00;63287.88;4973826;28;20046;-51
2022/07/04 04:37:59;;;;;;;37.63;33.78;;;;;;;-140.79;100.00;63287.88;4979951;28;20140;-51
2022/07/04 04:40:25;;;;;;;37.00;33.15;;;;;;;-140.79;100.00;63287.88;4989840;28;20041;-57
2022/07/04 04:42:50;;;;;;;39.13;35.35;;;;;;;-140.79;100.00;63287.88;4997117;28;20028;-55
2022/07/04 04:45:15;;;;;;;42.08;37.42;;;;;;;-140.79;100.00;63287.88;4999235;28;20655;-55
2022/07/04 04:47:43;;;;;;;24.80;22.15;;;;;;;-140.79;100.00;63287.88;5018011;28;20078;-53
2022/07/04 04:50:11;;;;;;;33.33;30.17;;;;;;;-140.79;100.00;63287.88;5003670;28;20041;-53
2022/07/04 04:52:37;;;;;;;29.17;26.58;;;;;;;-140.79;100.00;63287.88;5020935;28;20468;-51
2022/07/04 04:55:03;;;;;;;33.35;30.02;;;;;;;-140.79;100.00;63287.88;5020089;28;20547;-51
2022/07/04 04:57:29;;;;;;;34.67;31.58;;;;;;;-140.79;100.00;63287.88;5020996;28;20059;-52
2022/07/04 04:59:54;;;;;;;30.55;27.67;;;;;;;-140.79;100.00;63287.88;5010815;28;20037;-51
2022/07/04 05:02:20;;;;;;;38.13;34.42;;;;;;;-140.79;100.00;63287.88;5007048;28;20030;-51
2022/07/04 05:04:45;;;;;;;37.63;34.05;;;;;;;-140.79;100.00;63287.88;5005722;28;20120;-53
2022/07/04 05:07:11;;;;;;;36.58;32.90;;;;;;;-140.79;100.00;63287.88;5019733;28;20493;-54
2022/07/04 05:09:36;;;;;;;34.20;30.85;;;;;;;-140.79;100.00;63287.88;5020768;28;20072;-54
2022/07/04 05:12:02;;;;;;;39.70;35.63;;;;;;;-140.79;100.00;63287.88;5019632;28;20103;-52
2022/07/04 05:14:28;;;;;;;35.35;31.70;;;;;;;-140.79;100.00;63287.88;5016339;28;20428;-53
2022/07/04 05:16:54;;;;;;;34.63;31.38;;;;;;;-140.79;100.00;63287.88;5017969;28;20055;-54
2022/07/04 05:19:19;;;;;;;36.13;32.67;;;;;;;-140.79;100.00;63287.88;5011093;28;20670;-53
2022/07/04 05:21:45;;;;;;;40.70;36.42;;;;;;;-140.79;100.00;63287.88;5018551;28;20670;-52
2022/07/04 05:24:11;;;;;;;60.60;54.13;;;;;;;-140.79;100.00;63287.88;5001801;28;20709;-52
2022/07/04 05:26:37;;;;;;;59.00;52.53;;;;;;;-140.79;100.00;63287.88;5020351;28;20030;-52
2022/07/04 05:29:02;;;;;;;55.85;49.83;;;;;;;-140.79;100.00;63287.88;5015390;28;20014;-52
2022/07/04 05:31:27;;;;;;;58.00;49.30;;;;;;;-140.79;100.00;63287.88;5016236;28;20745;-52
2022/07/04 05:33:54;;;;;;;59.83;50.83;;;;;;;-140.79;100.00;63287.88;5013141;28;20159;-52
2022/07/04 05:36:20;;;;;;;58.63;51.70;;;;;;;-140.79;100.00;63287.88;5019405;28;20017;-52
2022/07/04 05:38:46;;;;;;;58.70;51.78;;;;;;;-140.79;100.00;63287.88;5013280;28;20080;-51
2022/07/04 05:41:11;;;;;;;60.17;52.22;;;;;;;-140.79;100.00;63287.88;5019771;28;20751;-52
2022/07/04 05:43:36;;;;;;;50.95;45.42;;;;;;;-140.79;100.00;63287.88;5011607;28;20029;-51
2022/07/04 05:46:03;;;;;;;60.67;52.20;;;;;;;-140.79;100.00;63287.88;5004460;28;20048;-52
2022/07/04 05:48:28;;;;;;;49.53;44.25;;;;;;;-140.79;100.00;63287.88;4996618;28;20042;-50
2022/07/04 05:50:54;;;;;;;45.25;40.47;;;;;;;-140.79;100.00;63287.88;4999613;28;20508;-51
2022/07/04 05:53:19;;;;;;;47.20;42.45;;;;;;;-140.79;100.00;63287.88;4998779;28;20481;-52
2022/07/04 05:55:45;;;;;;;53.15;47.40;;;;;;;-140.79;100.00;63287.88;4999851;28;20033;-53
2022/07/04 05:58:10;;;;;;;41.35;36.63;;;;;;;-140.79;100.00;63287.88;4994728;28;20524;-51
2022/07/04 06:00:36;;;;;;;42.47;35.97;;;;;;;-140.79;100.00;63287.88;4993395;28;20021;-52
2022/07/04 06:03:01;;;;;;;46.38;41.10;;;;;;;-140.79;100.00;63287.88;4993373;28;20060;-51
2022/07/04 06:05:27;;;;;;;35.97;32.45;;;;;;;-140.79;100.00;63287.88;4994336;28;20065;-52
2022/07/04 06:07:52;;;;;;;40.20;35.95;;;;;;;-140.79;100.00;63287.88;4988035;28;20027;-53
2022/07/04 06:10:18;;;;;;;38.95;34.88;;;;;;;-140.79;100.00;63287.88;4988882;28;20021;-53
2022/07/04 06:12:44;;;;;;;35.78;32.15;;;;;;;-140.79;100.00;63287.88;4972348;28;20346;-51
2022/07/04 06:15:09;;;;;;;36.47;32.05;;;;;;;-140.79;100.00;63287.88;4986495;28;20034;-53
2022/07/04 06:17:36;;;;;;;35.33;31.67;;;;;;;-140.79;100.00;63287.88;4993642;28;20116;-54
2022/07/04 06:20:01;;;;;;;30.55;27.52;;;;;;;-140.79;100.00;63287.88;4996794;28;20092;-53
2022/07/04 06:22:27;;;;;;;32.85;29.60;;;;;;;-140.79;100.00;63287.88;4997512;28;20018;-51
2022/07/04 06:24:52;;;;;;;33.15;29.75;;;;;;;-140.79;100.00;63287.88;5000227;28;20037;-50
2022/07/04 06:27:18;;;;;;;28.02;25.00;;;;;;;-140.79;100.00;63287.88;4997487;28;20698;-51
2022/07/04 06:29:43;;;;;;;35.33;31.65;;;;;;;-140.79;100.00;63287.88;4996579;28;20034;-51
2022/07/04 06:32:09;;;;;;;34.88;31.25;;;;;;;-140.79;100.00;63287.88;4986712;28;20537;-55
2022/07/04 06:37:18;;;;;;;25.60;22.08;;;;;;;-140.79;100.00;63287.88;4987190;28;20041;-51
2022/07/04 06:39:44;;;;;;;30.35;27.15;;;;;;;-140.79;100.00;63287.88;4982408;28;20033;-52
2022/07/04 06:42:09;;;;;;;29.73;26.52;;;;;;;-140.79;100.00;63287.88;4985289;28;20485;-51
2022/07/04 06:44:35;;;;;;;18.65;12.52;;;;;;;-140.79;100.00;63287.88;4988866;28;20609;-53
2022/07/04 06:47:00;;;;;;;25.85;23.15;;;;;;;-140.79;100.00;63287.88;5016243;28;20025;-52
2022/07/04 06:49:25;;;;;;;23.70;20.77;;;;;;;-140.79;100.00;63287.88;5017572;28;20732;-51
2022/07/04 06:51:51;;;;;;;22.70;20.20;;;;;;;-140.79;100.00;63287.88;5015125;28;20033;-51
2022/07/04 06:54:16;;;;;;;28.45;25.48;;;;;;;-140.79;100.00;63287.88;5014317;28;20048;-53
2022/07/04 06:56:42;;;;;;;27.15;24.23;;;;;;;-140.79;100.00;63287.88;5008733;28;20523;-53
2022/07/04 06:59:07;;;;;;;21.60;19.50;;;;;;;-140.79;100.00;63287.88;5013894;28;20228;-51
2022/07/04 07:01:33;;;;;;;21.92;19.55;;;;;;;-140.79;100.00;63287.88;5010237;28;20095;-52
2022/07/04 07:03:58;;;;;;;22.20;20.05;;;;;;;-140.79;100.00;63287.88;5004774;28;20029;-50
2022/07/04 07:06:24;;;;;;;22.65;20.35;;;;;;;-140.79;100.00;63287.88;4986790;28;20532;-52
2022/07/04 07:08:49;;;;;;;23.40;20.58;;;;;;;-140.79;100.00;63287.88;5003784;28;20543;-51
2022/07/04 07:11:18;;;;;;;20.58;18.48;;;;;;;-140.79;100.00;63287.88;5006277;28;20109;-51
2022/07/04 07:13:45;;;;;;;22.60;20.53;;;;;;;-140.79;100.00;63287.88;5006411;28;20604;-51
2022/07/04 07:16:11;;;;;;;17.80;15.93;;;;;;;-140.79;100.00;63287.88;5010469;28;20021;-49
2022/07/04 07:18:37;;;;;;;19.88;15.80;;;;;;;-140.79;100.00;63287.88;4979822;28;20492;-51
2022/07/04 07:21:02;;;;;;;23.15;18.48;;;;;;;-140.79;100.00;63287.88;5014260;28;20436;-51
2022/07/04 07:23:28;;;;;;;22.33;19.98;;;;;;;-140.79;100.00;63287.88;5015206;28;20034;-51
2022/07/04 07:25:54;;;;;;;25.35;22.98;;;;;;;-140.79;100.00;63287.88;5016620;28;20782;-52
2022/07/04 07:28:19;;;;;;;26.33;21.80;;;;;;;-140.79;100.00;63287.88;4986419;28;20034;-51
2022/07/04 07:30:46;;;;;;;24.65;18.90;;;;;;;-140.79;100.00;63287.88;5003999;28;20087;-51
2022/07/04 07:33:11;;;;;;;23.58;21.33;;;;;;;-140.79;100.00;63287.88;4999863;28;20046;-52
2022/07/04 07:35:37;;;;;;;23.35;20.85;;;;;;;-140.79;100.00;63287.88;4997768;28;20028;-52
2022/07/04 07:38:03;;;;;;;23.70;20.77;;;;;;;-140.79;100.00;63287.88;4998085;28;20532;-50
2022/07/04 07:40:28;;;;;;;22.90;20.48;;;;;;;-140.79;100.00;63287.88;5000298;28;20036;-52
2022/07/04 07:42:54;;;;;;;20.77;18.70;;;;;;;-140.79;100.00;63287.88;5001477;28;20213;-51
2022/07/04 07:45:20;;;;;;;23.40;21.08;;;;;;;-140.79;100.00;63287.88;4993388;28;20150;-50
2022/07/04 07:47:46;;;;;;;19.13;16.88;;;;;;;-140.79;100.00;63287.88;4983333;28;20022;-50
2022/07/04 07:50:12;;;;;;;15.07;11.93;;;;;;;-140.79;100.00;63287.88;4981809;28;20056;-51
2022/07/04 07:52:37;;;;;;;17.75;15.63;;;;;;;-140.79;100.00;63287.88;4971400;28;20100;-51
2022/07/04 07:55:03;;;;;;;22.27;20.10;;;;;;;-140.79;100.00;63287.88;4984769;28;20038;-50
2022/07/04 07:57:29;;;;;;;16.80;14.80;;;;;;;-140.79;100.00;63287.88;4984014;28;20034;-51
2022/07/04 07:59:54;;;;;;;17.23;15.32;;;;;;;-140.79;100.00;63287.88;4975921;28;20054;-51
2022/07/04 08:02:20;;;;;;;23.70;21.20;;;;;;;-140.79;100.00;63287.88;4978771;28;20130;-50
2022/07/04 08:04:45;;;;;;;22.58;20.15;;;;;;;-140.79;100.00;63287.88;4990104;28;20117;-50
2022/07/04 08:07:14;;;;;;;19.42;17.38;;;;;;;-140.79;100.00;63287.88;4976477;28;20097;-51
2022/07/04 08:09:39;;;;;;;20.33;18.15;;;;;;;-140.79;100.00;63287.88;4984928;28;20854;-53
2022/07/04 08:12:05;;;;;;;21.45;17.77;;;;;;;-140.79;100.00;63287.88;4986645;28;20029;-51
2022/07/04 08:14:31;;;;;;;23.33;20.95;;;;;;;-140.79;100.00;63287.88;4974787;28;20035;-55
2022/07/04 08:16:57;;;;;;;25.38;19.27;;;;;;;-140.79;100.00;63287.88;4985482;28;20535;-50
2022/07/04 08:19:24;;;;;;;20.27;16.90;;;;;;;-140.79;100.00;63287.88;4969907;28;20023;-51
2022/07/04 08:21:50;;;;;;;23.23;20.00;;;;;;;-140.79;100.00;63287.88;4991265;28;20393;-50
2022/07/04 08:24:15;;;;;;;16.80;14.93;;;;;;;-140.79;100.00;63287.88;4984261;28;20044;-51
2022/07/04 08:26:41;;;;;;;27.48;22.10;;;;;;;-140.79;100.00;63287.88;4984885;28;20028;-51
2022/07/04 08:29:19;;;;;;;18.88;16.98;;;;;;;-140.79;100.00;63287.88;4982764;28;20013;-52
2022/07/04 08:31:45;;;;;;;18.65;16.33;;;;;;;-140.79;100.00;63287.88;4989878;28;20034;-50
2022/07/04 08:34:11;;;;;;;16.40;14.77;;;;;;;-140.79;100.00;63287.88;4986980;28;20017;-50
2022/07/04 08:36:36;;;;;;;24.95;21.65;;;;;;;-140.79;100.00;63287.88;4976627;28;20034;-53
2022/07/04 08:39:02;;;;;;;21.90;19.80;;;;;;;-140.79;100.00;63287.88;4995217;28;20060;-50
2022/07/04 08:41:27;;;;;;;24.08;21.48;;;;;;;-140.79;100.00;63287.88;5000163;28;20484;-52
2022/07/04 08:43:53;;;;;;;17.77;15.95;;;;;;;-140.79;100.00;63287.88;4954857;28;20518;-49
2022/07/04 08:46:18;;;;;;;27.20;24.58;;;;;;;-140.79;100.00;63287.88;4973675;28;20045;-52
2022/07/04 08:48:50;;;;;;;21.23;19.25;;;;;;;-140.79;100.00;63287.88;4978098;28;20026;-51
2022/07/04 08:51:16;;;;;;;22.33;19.20;;;;;;;-140.79;100.00;63287.88;4998154;28;20013;-52
2022/07/04 08:53:52;;;;;;;21.50;19.45;;;;;;;-140.79;100.00;63287.88;5015344;28;20099;-53
2022/07/04 08:59:03;;;;;;;27.65;24.92;;;;;;;-140.79;100.00;63287.88;5013057;28;20072;-51
2022/07/04 09:01:28;;;;;;;21.08;19.10;;;;;;;-140.79;100.00;63287.88;5016456;28;20041;-54
2022/07/04 09:03:54;;;;;;;28.38;25.52;;;;;;;-140.79;100.00;63287.88;4987509;28;20026;-51
2022/07/04 09:06:19;;;;;;;30.38;25.98;;;;;;;-140.79;100.00;63287.88;5018657;28;20021;-53
2022/07/04 09:08:44;;;;;;;26.30;23.90;;;;;;;-140.79;100.00;63287.88;4973580;28;20026;-51
2022/07/04 09:11:12;;;;;;;26.40;23.70;;;;;;;-140.79;100.00;63287.88;5016787;28;20056;-50
2022/07/04 09:13:37;;;;;;;19.75;17.52;;;;;;;-140.79;100.00;63287.88;5015571;28;20017;-51
2022/07/04 09:16:03;;;;;;;20.38;18.33;;;;;;;-140.79;100.00;63287.88;5016155;28;20048;-52
2022/07/04 09:18:33;;;;;;;23.52;20.75;;;;;;;-140.79;100.00;63287.88;5019898;28;20025;-52
2022/07/04 09:21:01;;;;;;;24.40;22.10;;;;;;;-140.79;100.00;63287.88;4983872;28;20354;-52
2022/07/04 09:23:33;;;;;;;17.92;15.73;;;;;;;-140.79;100.00;63287.88;5017096;28;20026;-53
2022/07/04 09:26:10;;;;;;;19.50;15.85;;;;;;;-140.79;100.00;63287.88;5016337;28;20692;-52
2022/07/04 09:28:37;;;;;;;16.42;14.55;;;;;;;-140.79;100.00;63287.88;5017018;28;20308;-51
2022/07/04 09:31:12;;;;;;;20.23;17.95;;;;;;;-140.79;100.00;63287.88;5026912;28;21027;-56
2022/07/04 09:33:45;;;;;;;19.60;17.70;;;;;;;-140.79;100.00;63287.88;4993308;28;20026;-54
2022/07/04 09:36:14;;;;;;;25.27;22.42;;;;;;;-140.79;100.00;63287.88;5010484;28;20127;-53
2022/07/04 09:38:39;;;;;;;14.25;11.90;;;;;;;-140.79;100.00;63287.88;5016963;28;20073;-53
2022/07/04 09:44:04;;;;;;;18.92;17.13;;;;;;;-140.79;100.00;63287.88;5018377;28;20453;-54
2022/07/04 09:46:29;;;;;;;24.70;21.35;;;;;;;-140.79;100.00;63287.88;4998984;28;20159;-55
2022/07/04 09:48:55;;;;;;;19.75;17.60;;;;;;;-140.79;100.00;63287.88;5019873;28;20092;-53
2022/07/04 09:51:47;;;;;;;17.42;15.27;;;;;;;-140.79;100.00;63287.88;5017369;28;20032;-53
2022/07/04 09:54:17;;;;;;;19.33;16.90;;;;;;;-140.79;100.00;63287.88;5017269;28;20116;-53
2022/07/04 09:56:51;;;;;;;14.18;12.48;;;;;;;-140.79;100.00;63287.88;5019922;28;20028;-52
2022/07/04 09:59:16;;;;;;;18.38;16.38;;;;;;;-140.79;100.00;63287.88;5010916;28;20748;-54
2022/07/04 10:01:43;;;;;;;17.42;15.63;;;;;;;-140.79;100.00;63287.88;5016233;28;20013;-52
2022/07/04 10:04:09;;;;;;;15.18;13.25;;;;;;;-140.79;100.00;63287.88;5019552;28;20025;-54
2022/07/04 10:06:35;;;;;;;19.92;17.77;;;;;;;-140.79;100.00;63287.88;4997228;28;20042;-53
2022/07/04 10:09:08;;;;;;;18.80;17.00;;;;;;;-140.79;100.00;63287.88;5015035;28;20034;-52
2022/07/04 10:11:33;;;;;;;17.55;15.68;;;;;;;-140.79;100.00;63287.88;5016626;28;20108;-52
2022/07/04 10:14:00;;;;;;;14.73;9.27;;;;;;;-140.79;100.00;63287.88;5014323;28;20040;-53
2022/07/04 10:16:25;;;;;;;11.48;8.48;;;;;;;-140.79;100.00;63287.88;5000590;28;20061;-52
2022/07/04 10:18:50;;;;;;;21.20;19.00;;;;;;;-140.79;100.00;63287.88;5017590;28;20618;-52
2022/07/04 10:21:16;;;;;;;20.73;18.67;;;;;;;-140.79;100.00;63287.88;4981444;28;20064;-52
2022/07/04 10:23:41;;;;;;;12.55;11.27;;;;;;;-140.79;100.00;63287.88;4998024;28;20034;-52
2022/07/04 10:26:07;;;;;;;18.75;16.85;;;;;;;-140.79;100.00;63287.88;4999027;28;20130;-54
2022/07/04 10:28:32;;;;;;;18.00;16.13;;;;;;;-140.79;100.00;63287.88;4999120;28;20017;-56
2022/07/04 10:30:58;;;;;;;19.55;17.52;;;;;;;-140.79;100.00;63287.88;4999333;28;20033;-53
2022/07/04 10:33:28;;;;;;;16.95;15.48;;;;;;;-140.79;100.00;63287.88;5018633;28;20412;-54
2022/07/04 10:36:04;;;;;;;21.02;18.88;;;;;;;-140.79;100.00;63287.88;5010963;28;20037;-52
2022/07/04 10:38:53;;;;;;;23.08;20.98;;;;;;;-140.79;100.00;63287.88;4997340;28;20551;-54
2022/07/04 10:41:22;;;;;;;18.25;16.38;;;;;;;-140.79;100.00;63287.88;5015060;28;20044;-53
2022/07/04 10:43:48;;;;;;;18.77;17.15;;;;;;;-140.79;100.00;63287.88;5016595;28;20029;-52
2022/07/04 10:46:14;;;;;;;13.57;11.57;;;;;;;-140.79;100.00;63287.88;5015217;28;20056;-53
2022/07/04 10:48:55;;;;;;;17.10;15.32;;;;;;;-140.79;100.00;63287.88;5013333;28;20095;-53
2022/07/04 10:51:39;;;;;;;16.60;14.95;;;;;;;-140.79;100.00;63287.88;5011036;28;20021;-53
2022/07/04 10:54:17;;;;;;;12.65;11.15;;;;;;;-140.79;100.00;63287.88;5011827;28;20036;-53
2022/07/04 10:56:53;;;;;;;12.95;11.65;;;;;;;-140.79;100.00;63287.88;5009571;28;20045;-52
2022/07/04 10:59:29;;;;;;;19.02;17.13;;;;;;;-140.79;100.00;63287.88;5004479;28;20622;-53
2022/07/04 11:02:06;;;;;;;17.88;16.25;;;;;;;-140.79;100.00;63287.88;5003409;28;20039;-53
2022/07/04 11:04:52;;;;;;;20.73;18.58;;;;;;;-140.79;100.00;63287.88;5002866;28;20040;-53
2022/07/04 11:07:21;;;;;;;18.67;16.70;;;;;;;-140.79;100.00;63287.88;5007064;28;20057;-55
2022/07/04 11:10:07;;;;;;;19.27;17.58;;;;;;;-140.79;100.00;63287.88;5002504;28;20036;-51